Time;durP1;ratioP1;P1;durP2;ratioP2;P2;SDS_P1;SDS_P2;PMS_P1;PMS_P2;Temp;Humidity;BMP_temperature;BMP_pressure;BME280_temperature;BME280_humidity;BME280_pressure;Samples;Min_cycle;Max_cycle;Signal;HPM_P1;HPM_P2
2021/07/15 00:02:01;;;;;;;96.55;59.15;;;;;;;;;;5031601;28;20507;-65
2021/07/15 00:04:27;;;;;;;105.05;58.47;;;;;;;;;;5038422;28;20484;-66
2021/07/15 00:06:54;;;;;;;99.80;59.03;;;;;;;;;;5030353;28;20068;-65
2021/07/15 00:09:20;;;;;;;170.30;67.32;;;;;;;;;;5038271;28;20061;-65
2021/07/15 00:11:47;;;;;;;145.68;67.55;;;;;;;;;;5030000;28;20594;-65
2021/07/15 00:14:15;;;;;;;94.35;58.13;;;;;;;;;;5035825;28;20114;-65
2021/07/15 00:16:42;;;;;;;82.00;52.88;;;;;;;;;;5036407;28;20431;-65
2021/07/15 00:19:11;;;;;;;98.07;57.22;;;;;;;;;;5034984;28;20120;-65
2021/07/15 00:21:37;;;;;;;113.03;61.53;;;;;;;;;;5030858;28;20401;-65
2021/07/15 00:24:04;;;;;;;150.40;65.55;;;;;;;;;;5035989;28;20051;-65
2021/07/15 00:26:30;;;;;;;83.28;54.83;;;;;;;;;;5035576;28;20040;-65
2021/07/15 00:28:56;;;;;;;93.53;54.10;;;;;;;;;;5026416;28;20041;-65
2021/07/15 00:31:22;;;;;;;70.15;47.92;;;;;;;;;;5035644;28;20033;-65
2021/07/15 00:33:48;;;;;;;65.82;47.83;;;;;;;;;;5026497;28;20057;-65
2021/07/15 00:36:15;;;;;;;79.47;50.38;;;;;;;;;;5036882;28;20327;-64
2021/07/15 00:38:41;;;;;;;63.53;45.60;;;;;;;;;;5028601;28;20033;-65
2021/07/15 00:41:08;;;;;;;108.00;53.55;;;;;;;;;;5035051;28;20422;-64
2021/07/15 00:43:34;;;;;;;57.22;41.70;;;;;;;;;;5032060;28;20437;-64
2021/07/15 00:46:00;;;;;;;52.53;41.05;;;;;;;;;;5034642;28;20362;-65
2021/07/15 00:48:27;;;;;;;66.68;42.40;;;;;;;;;;5026233;28;20076;-65
2021/07/15 00:50:53;;;;;;;51.20;37.67;;;;;;;;;;5040011;28;20541;-65
2021/07/15 00:53:20;;;;;;;63.17;43.60;;;;;;;;;;5028518;28;20040;-65
2021/07/15 00:55:47;;;;;;;54.75;41.30;;;;;;;;;;5036946;28;20091;-65
2021/07/15 00:58:14;;;;;;;69.55;43.95;;;;;;;;;;5034850;28;20041;-65
2021/07/15 01:00:43;;;;;;;43.22;35.67;;;;;;;;;;5034726;28;20045;-65
2021/07/15 01:03:11;;;;;;;89.38;46.17;;;;;;;;;;5032172;28;20083;-65
2021/07/15 01:05:39;;;;;;;59.60;39.95;;;;;;;;;;5026938;28;20121;-65
2021/07/15 01:08:06;;;;;;;59.75;41.55;;;;;;;;;;5035589;28;20049;-65
2021/07/15 01:10:37;;;;;;;49.38;35.88;;;;;;;;;;5027374;28;20506;-65
2021/07/15 01:13:03;;;;;;;45.83;33.72;;;;;;;;;;5033006;28;20041;-65
2021/07/15 01:15:32;;;;;;;55.53;36.85;;;;;;;;;;5027523;28;20115;-66
2021/07/15 01:17:58;;;;;;;53.92;36.85;;;;;;;;;;5040216;28;20087;-66
2021/07/15 01:20:38;;;;;;;59.40;38.83;;;;;;;;;;5032856;28;20363;-66
2021/07/15 01:23:23;;;;;;;48.40;35.67;;;;;;;;;;5030113;28;20120;-66
2021/07/15 01:26:18;;;;;;;56.75;35.70;;;;;;;;;;5027437;28;20057;-66
2021/07/15 01:28:47;;;;;;;54.92;36.45;;;;;;;;;;5025797;28;20371;-66
2021/07/15 01:31:14;;;;;;;51.58;33.40;;;;;;;;;;5033428;28;20079;-66
2021/07/15 01:33:40;;;;;;;62.05;35.72;;;;;;;;;;5035879;28;20127;-66
2021/07/15 01:36:09;;;;;;;54.70;34.00;;;;;;;;;;5030394;28;20179;-66
2021/07/15 01:38:36;;;;;;;54.33;36.08;;;;;;;;;;5031078;28;20184;-66
2021/07/15 01:41:04;;;;;;;42.33;31.08;;;;;;;;;;5026311;28;20417;-66
2021/07/15 01:43:33;;;;;;;36.88;29.63;;;;;;;;;;5031075;28;20057;-66
2021/07/15 01:46:00;;;;;;;36.63;29.52;;;;;;;;;;5038012;28;20041;-66
2021/07/15 01:48:26;;;;;;;41.53;29.92;;;;;;;;;;5034680;28;20099;-66
2021/07/15 01:50:52;;;;;;;36.28;29.73;;;;;;;;;;5028335;28;20042;-66
2021/07/15 01:53:19;;;;;;;41.08;29.70;;;;;;;;;;5035778;28;20045;-66
2021/07/15 01:55:45;;;;;;;44.08;29.77;;;;;;;;;;5032651;28;20087;-66
2021/07/15 01:58:12;;;;;;;45.03;32.22;;;;;;;;;;5032648;28;20072;-66
2021/07/15 02:00:39;;;;;;;44.72;32.10;;;;;;;;;;5036247;28;20033;-66
2021/07/15 02:03:09;;;;;;;60.42;35.10;;;;;;;;;;5031605;28;20490;-66
2021/07/15 02:05:36;;;;;;;47.63;33.47;;;;;;;;;;5039251;28;20045;-66
2021/07/15 02:08:04;;;;;;;54.40;34.53;;;;;;;;;;5029885;28;20529;-66
2021/07/15 02:10:31;;;;;;;56.70;33.80;;;;;;;;;;5015072;28;20049;-66
2021/07/15 02:12:57;;;;;;;49.17;33.05;;;;;;;;;;5028562;28;20049;-66
2021/07/15 02:15:28;;;;;;;49.10;31.98;;;;;;;;;;5033529;28;20041;-66
2021/07/15 02:17:55;;;;;;;64.93;35.90;;;;;;;;;;5027889;28;20095;-66
2021/07/15 02:20:22;;;;;;;54.45;36.28;;;;;;;;;;5039074;28;20048;-66
2021/07/15 02:22:48;;;;;;;53.65;36.80;;;;;;;;;;5033344;28;20029;-66
2021/07/15 02:25:15;;;;;;;56.30;37.55;;;;;;;;;;5038141;28;20037;-66
2021/07/15 02:27:43;;;;;;;63.03;37.25;;;;;;;;;;5029621;28;20113;-66
2021/07/15 02:30:11;;;;;;;75.25;38.58;;;;;;;;;;5037020;28;20139;-66
2021/07/15 02:32:38;;;;;;;58.15;37.05;;;;;;;;;;5029822;28;20454;-67
2021/07/15 02:35:11;;;;;;;88.90;40.75;;;;;;;;;;5037271;28;20394;-67
2021/07/15 02:37:38;;;;;;;57.72;36.08;;;;;;;;;;5026897;28;20080;-66
2021/07/15 02:40:07;;;;;;;67.53;38.55;;;;;;;;;;5044577;28;20052;-66
2021/07/15 02:42:33;;;;;;;57.58;37.05;;;;;;;;;;5032992;28;20426;-66
2021/07/15 02:45:00;;;;;;;45.55;32.80;;;;;;;;;;5036380;28;20124;-66
2021/07/15 02:47:27;;;;;;;66.38;34.83;;;;;;;;;;5039266;28;20061;-66
2021/07/15 02:49:54;;;;;;;61.65;34.45;;;;;;;;;;5038138;28;20045;-67
2021/07/15 02:52:20;;;;;;;71.00;37.33;;;;;;;;;;5035445;28;20468;-67
2021/07/15 02:54:46;;;;;;;53.20;33.10;;;;;;;;;;5031006;28;20051;-66
2021/07/15 02:57:15;;;;;;;53.95;32.92;;;;;;;;;;5047753;28;20131;-66
2021/07/15 02:59:44;;;;;;;48.03;30.05;;;;;;;;;;5029342;28;20091;-66
2021/07/15 03:02:21;;;;;;;55.20;33.67;;;;;;;;;;5036401;28;20037;-67
2021/07/15 03:05:01;;;;;;;54.33;31.80;;;;;;;;;;5031929;28;20049;-66
2021/07/15 03:07:29;;;;;;;46.40;31.38;;;;;;;;;;5044606;28;20428;-66
2021/07/15 03:09:56;;;;;;;57.85;34.38;;;;;;;;;;5030236;28;20052;-66
2021/07/15 03:12:23;;;;;;;54.63;34.58;;;;;;;;;;5034182;28;20227;-66
2021/07/15 03:14:51;;;;;;;53.03;30.23;;;;;;;;;;5030055;28;20461;-66
2021/07/15 03:17:19;;;;;;;60.33;33.40;;;;;;;;;;5040226;28;20420;-67
2021/07/15 03:19:46;;;;;;;54.67;31.73;;;;;;;;;;5031768;28;20067;-67
2021/07/15 03:22:13;;;;;;;58.88;32.53;;;;;;;;;;5034429;28;20033;-66
2021/07/15 03:24:46;;;;;;;74.00;36.92;;;;;;;;;;5035750;28;20116;-67
2021/07/15 03:27:12;;;;;;;68.00;36.20;;;;;;;;;;5038310;28;20464;-67
2021/07/15 03:29:39;;;;;;;59.50;32.95;;;;;;;;;;5029862;28;20076;-67
2021/07/15 03:32:06;;;;;;;57.25;34.30;;;;;;;;;;5036533;28;20092;-67
2021/07/15 03:34:33;;;;;;;61.20;32.33;;;;;;;;;;5031658;28;20397;-67
2021/07/15 03:37:00;;;;;;;53.97;32.08;;;;;;;;;;5041215;28;20041;-67
2021/07/15 03:39:26;;;;;;;65.65;31.77;;;;;;;;;;5041798;28;20033;-67
2021/07/15 03:41:53;;;;;;;50.05;29.23;;;;;;;;;;5028582;28;20117;-67
2021/07/15 03:44:20;;;;;;;50.72;28.42;;;;;;;;;;5034234;28;20494;-68
2021/07/15 03:46:47;;;;;;;51.90;29.05;;;;;;;;;;5033839;28;20064;-67
2021/07/15 03:49:17;;;;;;;59.45;30.42;;;;;;;;;;5039591;28;20037;-67
2021/07/15 03:51:44;;;;;;;48.88;27.15;;;;;;;;;;5028852;28;20041;-68
2021/07/15 03:54:10;;;;;;;53.22;28.63;;;;;;;;;;5038895;28;20040;-67
2021/07/15 03:56:38;;;;;;;44.08;25.73;;;;;;;;;;5026637;28;20107;-67
2021/07/15 03:59:05;;;;;;;36.08;21.70;;;;;;;;;;5037541;28;20041;-67
2021/07/15 04:01:32;;;;;;;47.38;25.30;;;;;;;;;;5031640;28;20132;-67
2021/07/15 04:04:00;;;;;;;45.13;24.63;;;;;;;;;;5033170;28;20481;-67
2021/07/15 04:06:27;;;;;;;51.75;25.02;;;;;;;;;;5030626;28;20045;-67
2021/07/15 04:08:56;;;;;;;55.17;26.13;;;;;;;;;;5033587;28;20669;-67
2021/07/15 04:11:23;;;;;;;48.95;25.10;;;;;;;;;;5031560;28;20067;-68
2021/07/15 04:13:50;;;;;;;45.38;25.20;;;;;;;;;;5030048;28;20049;-67
2021/07/15 04:16:27;;;;;;;51.38;27.15;;;;;;;;;;5034024;28;20048;-67
2021/07/15 04:18:55;;;;;;;41.15;21.80;;;;;;;;;;5039799;28;20045;-67
2021/07/15 04:21:22;;;;;;;56.10;27.45;;;;;;;;;;5031139;28;20052;-68
2021/07/15 04:23:48;;;;;;;58.03;28.08;;;;;;;;;;5032109;28;20045;-68
2021/07/15 04:26:15;;;;;;;53.00;25.02;;;;;;;;;;5038610;28;20041;-68
2021/07/15 04:28:42;;;;;;;57.65;25.50;;;;;;;;;;5028924;28;20049;-68
2021/07/15 04:31:11;;;;;;;54.30;25.00;;;;;;;;;;5036402;28;20476;-67
2021/07/15 04:33:37;;;;;;;55.63;27.15;;;;;;;;;;5031334;28;20457;-68
2021/07/15 04:36:04;;;;;;;53.53;25.85;;;;;;;;;;5035736;28;20052;-68
2021/07/15 04:38:30;;;;;;;45.53;25.52;;;;;;;;;;5028763;28;20057;-67
2021/07/15 04:40:56;;;;;;;47.25;22.88;;;;;;;;;;5032042;28;20522;-67
2021/07/15 04:43:24;;;;;;;45.05;22.33;;;;;;;;;;5027729;28;20045;-67
2021/07/15 04:45:51;;;;;;;59.08;25.42;;;;;;;;;;5037732;28;20033;-68
2021/07/15 04:48:18;;;;;;;46.05;23.60;;;;;;;;;;5029829;28;20462;-68
2021/07/15 04:50:44;;;;;;;50.42;24.70;;;;;;;;;;5039799;28;20044;-68
2021/07/15 04:53:13;;;;;;;55.80;25.42;;;;;;;;;;5024227;28;20454;-68
2021/07/15 04:55:40;;;;;;;55.50;26.45;;;;;;;;;;5038334;28;20040;-68
2021/07/15 04:58:07;;;;;;;54.35;25.98;;;;;;;;;;5025704;28;20108;-68
2021/07/15 05:00:34;;;;;;;34.67;20.35;;;;;;;;;;5038174;28;20064;-67
2021/07/15 05:03:03;;;;;;;34.53;21.98;;;;;;;;;;5030202;28;20135;-67
2021/07/15 05:05:29;;;;;;;36.58;21.80;;;;;;;;;;5034085;28;20033;-67
2021/07/15 05:07:55;;;;;;;33.33;18.88;;;;;;;;;;5034113;28;20045;-67
2021/07/15 05:10:22;;;;;;;29.70;19.58;;;;;;;;;;5032845;28;20055;-67
2021/07/15 05:12:49;;;;;;;39.10;22.63;;;;;;;;;;5031039;28;20328;-67
2021/07/15 05:15:15;;;;;;;48.42;23.80;;;;;;;;;;5032001;28;20120;-67
2021/07/15 05:17:41;;;;;;;39.25;21.42;;;;;;;;;;5031542;28;20064;-66
2021/07/15 05:20:08;;;;;;;37.35;21.90;;;;;;;;;;5029266;28;20049;-66
2021/07/15 05:22:35;;;;;;;47.42;24.35;;;;;;;;;;5039224;28;20039;-66
2021/07/15 05:25:01;;;;;;;42.97;22.98;;;;;;;;;;5028940;28;20505;-66
2021/07/15 05:27:27;;;;;;;45.90;25.42;;;;;;;;;;5030694;28;20349;-66
2021/07/15 05:29:53;;;;;;;35.13;21.27;;;;;;;;;;5028131;28;20036;-66
2021/07/15 05:32:20;;;;;;;45.35;22.27;;;;;;;;;;5031661;28;20071;-66
2021/07/15 05:34:46;;;;;;;34.97;21.30;;;;;;;;;;5028439;28;20052;-66
2021/07/15 05:37:12;;;;;;;44.00;22.65;;;;;;;;;;5019475;28;20068;-66
2021/07/15 05:39:39;;;;;;;49.83;23.13;;;;;;;;;;5032323;28;20832;-67
2021/07/15 05:42:05;;;;;;;29.00;19.50;;;;;;;;;;5029414;28;20150;-67
2021/07/15 05:44:32;;;;;;;37.28;22.58;;;;;;;;;;5029311;28;20041;-67
2021/07/15 05:46:58;;;;;;;54.45;24.38;;;;;;;;;;5032155;28;20037;-67
2021/07/15 05:49:24;;;;;;;40.05;22.42;;;;;;;;;;5029773;28;20034;-67
2021/07/15 05:51:50;;;;;;;50.70;24.30;;;;;;;;;;5027539;28;20044;-67
2021/07/15 05:54:16;;;;;;;42.65;23.48;;;;;;;;;;5033034;28;20493;-67
2021/07/15 05:56:43;;;;;;;45.58;23.73;;;;;;;;;;5028972;28;20033;-67
2021/07/15 05:59:09;;;;;;;50.72;24.00;;;;;;;;;;5033406;28;20220;-67
2021/07/15 06:01:35;;;;;;;50.63;25.80;;;;;;;;;;5028987;28;20045;-67
2021/07/15 06:04:01;;;;;;;43.10;21.77;;;;;;;;;;5034938;28;20099;-67
2021/07/15 06:06:27;;;;;;;60.95;24.80;;;;;;;;;;5028399;28;20525;-67
2021/07/15 06:08:54;;;;;;;39.13;20.42;;;;;;;;;;5038855;28;20111;-66
2021/07/15 06:11:20;;;;;;;34.10;19.85;;;;;;;;;;5026878;28;20456;-67
2021/07/15 06:13:47;;;;;;;35.80;19.23;;;;;;;;;;5036764;28;20496;-67
2021/07/15 06:16:13;;;;;;;36.78;18.50;;;;;;;;;;5029341;28;20037;-67
2021/07/15 06:18:39;;;;;;;35.83;17.40;;;;;;;;;;5033989;28;20502;-67
2021/07/15 06:21:05;;;;;;;49.83;21.20;;;;;;;;;;5028856;28;20589;-68
2021/07/15 06:23:32;;;;;;;39.40;21.38;;;;;;;;;;5031658;28;20035;-67
2021/07/15 06:25:59;;;;;;;49.10;21.90;;;;;;;;;;5029439;28;20546;-67
2021/07/15 06:28:26;;;;;;;36.90;20.80;;;;;;;;;;5031505;28;20544;-67
2021/07/15 06:30:52;;;;;;;39.55;20.00;;;;;;;;;;5034197;28;20531;-67
2021/07/15 06:33:18;;;;;;;43.22;21.25;;;;;;;;;;5029407;28;20042;-67
2021/07/15 06:35:48;;;;;;;39.75;19.15;;;;;;;;;;5037908;28;20101;-67
2021/07/15 06:38:14;;;;;;;47.85;22.20;;;;;;;;;;5035366;28;20042;-67
2021/07/15 06:40:40;;;;;;;42.13;21.73;;;;;;;;;;5031348;28;20041;-67
2021/07/15 06:43:06;;;;;;;48.13;23.17;;;;;;;;;;5025697;28;20077;-67
2021/07/15 06:45:32;;;;;;;47.20;23.63;;;;;;;;;;5034661;28;20049;-67
2021/07/15 06:47:58;;;;;;;50.63;23.33;;;;;;;;;;5027901;28;20106;-67
2021/07/15 06:50:24;;;;;;;50.80;23.10;;;;;;;;;;5036779;28;20052;-67
2021/07/15 06:52:51;;;;;;;42.58;22.30;;;;;;;;;;5033066;28;20396;-67
2021/07/15 06:55:17;;;;;;;53.10;24.02;;;;;;;;;;5037721;28;20289;-67
2021/07/15 06:57:44;;;;;;;39.20;21.45;;;;;;;;;;5031711;28;20057;-67
2021/07/15 07:00:15;;;;;;;44.25;22.48;;;;;;;;;;5040972;28;20056;-67
2021/07/15 07:02:42;;;;;;;50.92;23.20;;;;;;;;;;5028847;28;20075;-67
2021/07/15 07:05:09;;;;;;;45.03;23.80;;;;;;;;;;5043056;28;20041;-67
2021/07/15 07:07:35;;;;;;;52.70;23.58;;;;;;;;;;5036077;28;20039;-67
2021/07/15 07:10:01;;;;;;;49.97;23.63;;;;;;;;;;5036783;28;20045;-67
2021/07/15 07:12:28;;;;;;;47.65;23.88;;;;;;;;;;5037559;28;20071;-66
2021/07/15 07:14:54;;;;;;;39.85;20.48;;;;;;;;;;5036236;28;20045;-66
2021/07/15 07:17:20;;;;;;;40.08;19.75;;;;;;;;;;5043319;28;20065;-66
2021/07/15 07:19:46;;;;;;;38.50;19.20;;;;;;;;;;5041744;28;20132;-66
2021/07/15 07:22:12;;;;;;;33.35;15.65;;;;;;;;;;5041040;28;20041;-67
2021/07/15 07:24:38;;;;;;;31.05;16.42;;;;;;;;;;5036022;28;20136;-67
2021/07/15 07:27:04;;;;;;;29.00;16.83;;;;;;;;;;5039768;28;20051;-66
2021/07/15 07:29:31;;;;;;;37.78;17.55;;;;;;;;;;5034948;28;20037;-67
2021/07/15 07:31:57;;;;;;;35.97;16.70;;;;;;;;;;5038577;28;20049;-67
2021/07/15 07:34:23;;;;;;;29.30;15.18;;;;;;;;;;5038499;28;20562;-67
2021/07/15 07:36:49;;;;;;;32.92;15.80;;;;;;;;;;5036641;28;20099;-67
2021/07/15 07:39:16;;;;;;;35.15;15.40;;;;;;;;;;5033754;28;20053;-67
2021/07/15 07:41:42;;;;;;;29.38;14.10;;;;;;;;;;5040859;28;20139;-66
2021/07/15 07:44:08;;;;;;;34.42;14.63;;;;;;;;;;5037637;28;20470;-67
2021/07/15 07:46:34;;;;;;;27.27;13.60;;;;;;;;;;5035649;28;20064;-67
2021/07/15 07:49:00;;;;;;;26.85;13.70;;;;;;;;;;5036838;28;20030;-67
2021/07/15 07:51:27;;;;;;;22.80;12.27;;;;;;;;;;5033609;28;20457;-67
2021/07/15 07:53:53;;;;;;;23.52;12.52;;;;;;;;;;5039543;28;20033;-67
2021/07/15 07:56:20;;;;;;;26.35;12.38;;;;;;;;;;5031982;28;20041;-67
2021/07/15 07:58:46;;;;;;;18.40;9.88;;;;;;;;;;5035732;28;20052;-67
2021/07/15 08:01:12;;;;;;;17.20;10.55;;;;;;;;;;5035111;28;20048;-67
2021/07/15 08:03:38;;;;;;;20.75;11.80;;;;;;;;;;5035828;28;20038;-67
2021/07/15 08:06:04;;;;;;;20.88;11.82;;;;;;;;;;5028926;28;20500;-67
2021/07/15 08:08:31;;;;;;;20.48;10.93;;;;;;;;;;5044329;28;20134;-66
2021/07/15 08:10:57;;;;;;;20.13;11.10;;;;;;;;;;5027456;28;20141;-66
2021/07/15 08:13:23;;;;;;;17.45;11.43;;;;;;;;;;5036996;28;20326;-66
2021/07/15 08:15:49;;;;;;;18.55;10.73;;;;;;;;;;5026844;28;20052;-66
2021/07/15 08:18:16;;;;;;;25.10;12.93;;;;;;;;;;5032444;28;20413;-65
2021/07/15 08:20:42;;;;;;;23.80;12.43;;;;;;;;;;5033681;28;20029;-64
2021/07/15 08:23:08;;;;;;;32.75;14.50;;;;;;;;;;5037403;28;20124;-64
2021/07/15 08:25:34;;;;;;;22.60;12.27;;;;;;;;;;5034151;28;20041;-64
2021/07/15 08:28:01;;;;;;;17.88;11.45;;;;;;;;;;5035660;28;20052;-64
2021/07/15 08:30:27;;;;;;;18.73;11.13;;;;;;;;;;5039724;28;20496;-64
2021/07/15 08:32:53;;;;;;;19.83;11.40;;;;;;;;;;5034557;28;20029;-64
2021/07/15 08:35:19;;;;;;;22.52;12.50;;;;;;;;;;5039945;28;20128;-64
2021/07/15 08:37:45;;;;;;;14.27;9.63;;;;;;;;;;5033218;28;20060;-64
2021/07/15 08:40:11;;;;;;;15.88;9.75;;;;;;;;;;5023369;28;20128;-64
2021/07/15 08:42:38;;;;;;;16.77;10.48;;;;;;;;;;5032361;28;20063;-65
2021/07/15 08:45:07;;;;;;;18.48;10.25;;;;;;;;;;5039675;28;20038;-65
2021/07/15 08:47:37;;;;;;;19.33;9.95;;;;;;;;;;5034347;28;20029;-65
2021/07/15 08:50:03;;;;;;;29.00;13.63;;;;;;;;;;5038720;28;20041;-65
2021/07/15 08:52:30;;;;;;;22.08;11.65;;;;;;;;;;5034037;28;20083;-64
2021/07/15 08:55:01;;;;;;;24.23;12.93;;;;;;;;;;5038784;28;20486;-65
2021/07/15 08:57:27;;;;;;;24.58;14.38;;;;;;;;;;5031699;28;20043;-65
2021/07/15 08:59:53;;;;;;;23.85;14.13;;;;;;;;;;5039843;28;20476;-65
2021/07/15 09:02:23;;;;;;;23.10;14.52;;;;;;;;;;5014264;28;20045;-65
2021/07/15 09:04:49;;;;;;;29.70;15.75;;;;;;;;;;5036706;28;20115;-66
2021/07/15 09:07:16;;;;;;;32.13;15.35;;;;;;;;;;5030422;28;20041;-66
2021/07/15 09:09:46;;;;;;;42.58;18.42;;;;;;;;;;5036974;28;20139;-66
2021/07/15 09:12:16;;;;;;;33.05;16.23;;;;;;;;;;5035019;28;20053;-66
2021/07/15 09:14:49;;;;;;;36.42;17.77;;;;;;;;;;5027171;28;20060;-66
2021/07/15 09:17:16;;;;;;;32.28;16.58;;;;;;;;;;5034523;28;20045;-65
2021/07/15 09:19:43;;;;;;;26.23;14.38;;;;;;;;;;5030471;28;20135;-65
2021/07/15 09:22:10;;;;;;;27.90;13.70;;;;;;;;;;5038093;28;20040;-65
2021/07/15 09:24:37;;;;;;;34.47;16.80;;;;;;;;;;5029651;28;20409;-65
2021/07/15 09:27:11;;;;;;;26.00;15.50;;;;;;;;;;5036256;28;20557;-65
2021/07/15 09:29:37;;;;;;;28.73;16.77;;;;;;;;;;5031080;28;20037;-65
2021/07/15 09:32:04;;;;;;;35.03;18.00;;;;;;;;;;5037030;28;20068;-65
2021/07/15 09:34:32;;;;;;;36.47;19.27;;;;;;;;;;5025384;28;20132;-65
2021/07/15 09:36:59;;;;;;;32.83;16.40;;;;;;;;;;5031265;28;20055;-65
2021/07/15 09:39:27;;;;;;;40.22;18.23;;;;;;;;;;5036812;28;20493;-65
2021/07/15 09:42:05;;;;;;;32.15;14.68;;;;;;;;;;5033924;28;20041;-65
2021/07/15 09:44:36;;;;;;;22.95;13.02;;;;;;;;;;5028966;28;20496;-65
2021/07/15 09:47:03;;;;;;;22.27;12.20;;;;;;;;;;5034074;28;20445;-63
2021/07/15 09:49:34;;;;;;;20.73;11.73;;;;;;;;;;5028940;28;20033;-62
2021/07/15 09:52:04;;;;;;;19.20;10.65;;;;;;;;;;5038696;28;20045;-64
2021/07/15 09:54:30;;;;;;;17.13;10.90;;;;;;;;;;5025627;28;20037;-64
2021/07/15 09:56:56;;;;;;;34.30;13.57;;;;;;;;;;5032042;28;20461;-64
2021/07/15 09:59:22;;;;;;;26.83;12.82;;;;;;;;;;5029969;28;20101;-64
2021/07/15 10:01:50;;;;;;;15.20;9.80;;;;;;;;;;5031204;28;20123;-65
2021/07/15 10:04:27;;;;;;;15.15;9.10;;;;;;;;;;5038377;28;20077;-65
2021/07/15 10:06:59;;;;;;;17.15;8.23;;;;;;;;;;5038739;28;20231;-65
2021/07/15 10:09:30;;;;;;;15.13;8.05;;;;;;;;;;5035989;28;20056;-65
2021/07/15 10:11:57;;;;;;;9.60;6.43;;;;;;;;;;5029063;28;20076;-65
2021/07/15 10:14:32;;;;;;;12.88;7.50;;;;;;;;;;5035203;28;20474;-64
2021/07/15 10:16:59;;;;;;;12.25;7.40;;;;;;;;;;5026429;28;20049;-66
2021/07/15 10:19:25;;;;;;;11.77;7.55;;;;;;;;;;5035793;28;20472;-66
2021/07/15 10:22:03;;;;;;;11.85;7.93;;;;;;;;;;5028463;28;20087;-65
2021/07/15 10:24:30;;;;;;;14.07;8.88;;;;;;;;;;5036184;28;20045;-65
2021/07/15 10:26:59;;;;;;;13.15;8.40;;;;;;;;;;5024806;28;20045;-65
2021/07/15 10:29:26;;;;;;;16.80;10.20;;;;;;;;;;5035596;28;20485;-65
2021/07/15 10:31:53;;;;;;;17.10;11.55;;;;;;;;;;5030325;28;20048;-65
2021/07/15 10:34:19;;;;;;;17.73;10.55;;;;;;;;;;5034325;28;20465;-65
2021/07/15 10:36:46;;;;;;;22.92;10.10;;;;;;;;;;5025402;28;20445;-65
2021/07/15 10:39:17;;;;;;;20.10;10.35;;;;;;;;;;5038005;28;20043;-65
2021/07/15 10:41:44;;;;;;;20.35;11.45;;;;;;;;;;5033906;28;20041;-65
2021/07/15 10:44:10;;;;;;;19.33;10.82;;;;;;;;;;5039005;28;20034;-66
2021/07/15 10:46:37;;;;;;;27.85;12.65;;;;;;;;;;5034302;28;20037;-66
2021/07/15 10:49:07;;;;;;;31.42;13.23;;;;;;;;;;5040225;28;20068;-66
2021/07/15 10:51:34;;;;;;;27.85;13.18;;;;;;;;;;5029304;28;20461;-66
2021/07/15 10:54:01;;;;;;;23.95;13.07;;;;;;;;;;5039017;28;20434;-66
2021/07/15 10:56:27;;;;;;;24.92;13.52;;;;;;;;;;5037272;28;20486;-67
2021/07/15 10:58:54;;;;;;;25.83;14.02;;;;;;;;;;5034776;28;20083;-65
2021/07/15 11:01:36;;;;;;;30.20;12.98;;;;;;;;;;5039219;28;20037;-65
2021/07/15 11:04:06;;;;;;;27.02;13.38;;;;;;;;;;5036190;28;20059;-67
2021/07/15 11:06:36;;;;;;;32.45;14.32;;;;;;;;;;5042377;28;20096;-68
2021/07/15 11:09:03;;;;;;;24.55;12.27;;;;;;;;;;5028445;28;20046;-68
2021/07/15 11:11:39;;;;;;;26.90;11.93;;;;;;;;;;5036678;28;20057;-68
2021/07/15 11:14:06;;;;;;;25.77;13.38;;;;;;;;;;5033678;28;20040;-65
2021/07/15 11:16:52;;;;;;;28.40;12.93;;;;;;;;;;5016832;28;20497;-65
2021/07/15 11:19:37;;;;;;;24.35;11.30;;;;;;;;;;5027017;28;20046;-65
2021/07/15 11:22:03;;;;;;;23.67;12.23;;;;;;;;;;5035005;28;20129;-65
2021/07/15 11:24:29;;;;;;;29.85;12.20;;;;;;;;;;5031591;28;20061;-67
2021/07/15 11:26:55;;;;;;;23.50;12.70;;;;;;;;;;5035732;28;20045;-66
2021/07/15 11:29:41;;;;;;;23.02;12.18;;;;;;;;;;5032603;28;20061;-66
2021/07/15 11:32:23;;;;;;;29.85;12.13;;;;;;;;;;5020706;28;20049;-67
2021/07/15 11:34:53;;;;;;;23.90;12.02;;;;;;;;;;5028724;28;20049;-66
2021/07/15 11:37:25;;;;;;;24.42;11.75;;;;;;;;;;5038871;28;20037;-66
2021/07/15 11:39:56;;;;;;;21.35;11.77;;;;;;;;;;5029828;28;20083;-67
2021/07/15 11:42:26;;;;;;;25.50;12.00;;;;;;;;;;5039364;28;20409;-67
2021/07/15 11:45:00;;;;;;;24.52;11.88;;;;;;;;;;5027255;28;20390;-67
2021/07/15 11:47:45;;;;;;;21.60;10.87;;;;;;;;;;5032646;28;20029;-67
2021/07/15 11:50:31;;;;;;;26.48;12.43;;;;;;;;;;5033874;28;20095;-67
2021/07/15 11:53:13;;;;;;;20.38;11.48;;;;;;;;;;5040976;28;20041;-67
2021/07/15 11:55:40;;;;;;;24.10;13.10;;;;;;;;;;5028295;28;20068;-68
2021/07/15 11:58:06;;;;;;;21.00;10.93;;;;;;;;;;5035932;28;20069;-67
2021/07/15 12:00:32;;;;;;;26.58;13.13;;;;;;;;;;5028873;28;20101;-68
2021/07/15 12:02:59;;;;;;;24.13;12.48;;;;;;;;;;5043594;28;20113;-68
2021/07/15 12:05:30;;;;;;;22.38;12.13;;;;;;;;;;5028956;28;20504;-68
2021/07/15 12:08:05;;;;;;;26.25;12.00;;;;;;;;;;5034701;28;20621;-67
2021/07/15 12:10:35;;;;;;;21.00;11.55;;;;;;;;;;5033129;28;20049;-67
2021/07/15 12:13:03;;;;;;;22.17;11.73;;;;;;;;;;5022026;28;20049;-67
2021/07/15 12:15:29;;;;;;;22.10;12.07;;;;;;;;;;5029094;28;20101;-69
2021/07/15 12:17:59;;;;;;;24.63;11.80;;;;;;;;;;5039591;28;20041;-68
2021/07/15 12:20:45;;;;;;;22.65;12.63;;;;;;;;;;5027774;28;20525;-68
2021/07/15 12:23:15;;;;;;;20.00;12.60;;;;;;;;;;5034127;28;20045;-68
2021/07/15 12:25:43;;;;;;;27.40;13.98;;;;;;;;;;5027752;28;20109;-68
2021/07/15 12:28:09;;;;;;;25.63;12.75;;;;;;;;;;5032046;28;20346;-68
2021/07/15 12:30:38;;;;;;;22.27;13.25;;;;;;;;;;5031502;28;20486;-68
2021/07/15 12:33:05;;;;;;;25.92;11.63;;;;;;;;;;5034042;28;20049;-68
2021/07/15 12:35:33;;;;;;;17.00;10.52;;;;;;;;;;5027734;28;20082;-68
2021/07/15 12:37:59;;;;;;;22.00;10.13;;;;;;;;;;5014800;28;20421;-67
2021/07/15 12:40:26;;;;;;;20.75;10.70;;;;;;;;;;5032920;28;20123;-68
2021/07/15 12:42:52;;;;;;;22.85;10.88;;;;;;;;;;5015226;28;20121;-68
2021/07/15 12:45:20;;;;;;;18.33;10.05;;;;;;;;;;5037530;28;20507;-68
2021/07/15 12:47:59;;;;;;;22.73;11.23;;;;;;;;;;5027148;28;20047;-68
2021/07/15 12:50:26;;;;;;;21.30;11.30;;;;;;;;;;5040019;28;20041;-68
2021/07/15 12:53:09;;;;;;;20.60;11.32;;;;;;;;;;5029532;28;20131;-67
2021/07/15 12:55:35;;;;;;;25.35;12.90;;;;;;;;;;5035468;28;20037;-68
2021/07/15 12:58:01;;;;;;;20.42;12.05;;;;;;;;;;5030545;28;20040;-68
2021/07/15 13:00:31;;;;;;;26.30;13.50;;;;;;;;;;5032436;28;20656;-68
2021/07/15 13:02:57;;;;;;;24.05;11.85;;;;;;;;;;5030767;28;20139;-68
2021/07/15 13:05:23;;;;;;;25.38;11.75;;;;;;;;;;5040641;28;20041;-68
2021/07/15 13:07:50;;;;;;;22.17;12.73;;;;;;;;;;5033487;28;20043;-68
2021/07/15 13:15:34;;;;;;;23.00;11.55;;;;;;;;;;5032075;28;20061;-68
2021/07/15 13:18:09;;;;;;;23.02;11.70;;;;;;;;;;5027330;28;20041;-68
2021/07/15 13:20:41;;;;;;;32.53;13.77;;;;;;;;;;5036799;28;20060;-67
2021/07/15 13:23:07;;;;;;;31.45;12.00;;;;;;;;;;5029797;28;20049;-68
2021/07/15 13:25:33;;;;;;;28.08;12.60;;;;;;;;;;5033871;28;20128;-68
2021/07/15 13:28:12;;;;;;;21.83;12.88;;;;;;;;;;5020831;28;20142;-67
2021/07/15 13:30:39;;;;;;;22.55;11.43;;;;;;;;;;5030137;28;20061;-67
2021/07/15 13:33:19;;;;;;;21.30;12.48;;;;;;;;;;5031904;28;20401;-68
2021/07/15 13:35:46;;;;;;;24.48;12.63;;;;;;;;;;5036377;28;20033;-68
2021/07/15 13:38:13;;;;;;;16.77;10.93;;;;;;;;;;5033199;28;20370;-68
2021/07/15 13:40:40;;;;;;;19.85;11.23;;;;;;;;;;5037810;28;20041;-68
2021/07/15 13:43:15;;;;;;;27.83;12.82;;;;;;;;;;5028946;28;20025;-68
2021/07/15 13:45:43;;;;;;;28.15;12.77;;;;;;;;;;5036097;28;20034;-67
2021/07/15 13:48:12;;;;;;;25.70;11.73;;;;;;;;;;5031875;28;20167;-67
2021/07/15 13:50:38;;;;;;;22.02;11.15;;;;;;;;;;5036656;28;20115;-67
2021/07/15 13:53:04;;;;;;;24.45;11.55;;;;;;;;;;5034424;28;20465;-67
2021/07/15 13:55:31;;;;;;;26.42;11.48;;;;;;;;;;5032216;28;20118;-68
2021/07/15 13:57:58;;;;;;;30.13;13.15;;;;;;;;;;5041171;28;20044;-68
2021/07/15 14:00:26;;;;;;;28.27;13.73;;;;;;;;;;5033132;28;20132;-68
2021/07/15 14:02:53;;;;;;;23.35;12.02;;;;;;;;;;5034356;28;20033;-67
2021/07/15 14:05:25;;;;;;;23.48;12.00;;;;;;;;;;5031987;28;20129;-67
2021/07/15 14:07:51;;;;;;;20.58;11.43;;;;;;;;;;5034512;28;20461;-67
2021/07/15 14:10:17;;;;;;;24.55;11.20;;;;;;;;;;5034973;28;20497;-67
2021/07/15 14:12:45;;;;;;;31.40;13.02;;;;;;;;;;5036072;28;20037;-67
2021/07/15 14:15:22;;;;;;;24.05;10.30;;;;;;;;;;5029524;28;20076;-67
2021/07/15 14:18:03;;;;;;;25.63;10.57;;;;;;;;;;5033592;28;20033;-67
2021/07/15 14:20:30;;;;;;;21.10;8.90;;;;;;;;;;5026906;28;22134;-68
2021/07/15 14:22:58;;;;;;;24.30;10.23;;;;;;;;;;5033442;28;20113;-68
2021/07/15 14:25:24;;;;;;;21.95;9.45;;;;;;;;;;5027240;28;20052;-68
2021/07/15 14:27:51;;;;;;;22.20;10.85;;;;;;;;;;5034233;28;20033;-68
2021/07/15 14:30:22;;;;;;;22.88;9.90;;;;;;;;;;5025049;28;20804;-68